Time;durP1;ratioP1;P1;durP2;ratioP2;P2;SDS_P1;SDS_P2;PMS_P1;PMS_P2;Temp;Humidity;BMP_temperature;BMP_pressure;BME280_temperature;BME280_humidity;BME280_pressure;Samples;Min_cycle;Max_cycle;Signal;HPM_P1;HPM_P2
2022/03/16 00:01:25;;;;;;;66.93;36.00;;;7.90;99.90;;;;;;5076990;28;20111;-66
2022/03/16 00:03:50;;;;;;;70.73;36.00;;;7.90;99.90;;;;;;5076614;28;20292;-66
2022/03/16 00:06:16;;;;;;;67.73;35.93;;;7.90;99.90;;;;;;5076664;28;20554;-66
2022/03/16 00:08:42;;;;;;;67.70;34.33;;;7.90;99.90;;;;;;5074548;28;20100;-66
2022/03/16 00:11:07;;;;;;;66.10;35.73;;;7.90;99.90;;;;;;5075736;28;20397;-67
2022/03/16 00:13:33;;;;;;;71.07;37.40;;;7.90;99.90;;;;;;5075859;28;20089;-66
2022/03/16 00:15:59;;;;;;;74.55;36.63;;;7.80;99.90;;;;;;5075251;28;20028;-66
2022/03/16 00:18:24;;;;;;;74.17;37.90;;;7.80;99.90;;;;;;5075519;28;20499;-67
2022/03/16 00:20:50;;;;;;;68.87;36.17;;;7.80;99.90;;;;;;5073971;28;20029;-67
2022/03/16 00:23:16;;;;;;;69.17;35.60;;;7.70;99.90;;;;;;5075141;28;20028;-66
2022/03/16 00:25:42;;;;;;;72.38;37.95;;;7.70;99.90;;;;;;5075556;28;20016;-67
2022/03/16 00:28:07;;;;;;;78.38;37.50;;;7.80;99.90;;;;;;5076941;28;20025;-67
2022/03/16 00:30:33;;;;;;;73.33;36.60;;;7.70;99.90;;;;;;5077555;28;20078;-67
2022/03/16 00:32:59;;;;;;;74.90;36.88;;;7.70;99.90;;;;;;5076025;28;20261;-66
2022/03/16 00:35:25;;;;;;;79.57;37.70;;;7.70;99.90;;;;;;5073832;28;20047;-66
2022/03/16 00:37:50;;;;;;;75.30;38.13;;;7.70;99.90;;;;;;5075171;28;20266;-67
2022/03/16 00:40:16;;;;;;;75.80;38.80;;;7.60;99.90;;;;;;5075762;28;20103;-67
2022/03/16 00:42:42;;;;;;;84.30;39.50;;;7.60;99.90;;;;;;5074159;28;20031;-67
2022/03/16 00:45:08;;;;;;;85.77;40.23;;;7.70;99.90;;;;;;5073945;28;20035;-67
2022/03/16 00:47:33;;;;;;;82.80;39.42;;;7.60;99.90;;;;;;5075152;28;20017;-67
2022/03/16 00:49:59;;;;;;;81.50;39.27;;;7.70;99.90;;;;;;5078003;28;20032;-67
2022/03/16 00:52:25;;;;;;;74.20;38.87;;;7.70;99.90;;;;;;5082770;28;20075;-66
2022/03/16 00:54:50;;;;;;;79.47;38.10;;;7.70;99.90;;;;;;5074953;28;20357;-66
2022/03/16 00:57:16;;;;;;;75.83;38.23;;;7.60;99.90;;;;;;5074896;28;20481;-65
2022/03/16 00:59:41;;;;;;;73.93;38.13;;;7.60;99.90;;;;;;5076439;28;20478;-68
2022/03/16 01:02:07;;;;;;;82.10;40.67;;;7.60;99.90;;;;;;5077868;28;20059;-66
2022/03/16 01:04:33;;;;;;;76.83;37.47;;;7.60;99.90;;;;;;5076348;28;20112;-66
2022/03/16 01:06:58;;;;;;;76.70;37.07;;;7.60;99.90;;;;;;5074516;28;20162;-66
2022/03/16 01:09:24;;;;;;;82.67;38.10;;;7.60;99.90;;;;;;5073133;28;20029;-66
2022/03/16 01:11:50;;;;;;;80.77;39.40;;;7.60;99.90;;;;;;5073054;28;20032;-66
2022/03/16 01:14:17;;;;;;;85.78;39.63;;;7.60;99.90;;;;;;5074554;28;20020;-66
2022/03/16 01:16:43;;;;;;;83.55;39.03;;;7.50;99.90;;;;;;5074048;28;20040;-66
2022/03/16 01:19:09;;;;;;;80.47;37.90;;;7.50;99.90;;;;;;5073784;28;20051;-66
2022/03/16 01:21:35;;;;;;;92.53;39.40;;;7.50;99.90;;;;;;5074101;28;20334;-68
2022/03/16 01:24:01;;;;;;;86.83;41.97;;;7.50;99.90;;;;;;5073487;28;20059;-67
2022/03/16 01:26:26;;;;;;;89.32;41.72;;;7.50;99.90;;;;;;5074115;28;20764;-67
2022/03/16 01:28:52;;;;;;;85.47;40.38;;;7.50;99.90;;;;;;5073756;28;20123;-67
2022/03/16 01:31:19;;;;;;;92.13;40.33;;;7.50;99.90;;;;;;5072749;28;20036;-66
2022/03/16 01:33:45;;;;;;;87.90;40.38;;;7.50;99.90;;;;;;5073986;28;20452;-66
2022/03/16 01:36:11;;;;;;;82.20;40.42;;;7.50;99.90;;;;;;5072290;28;20071;-67
2022/03/16 01:38:36;;;;;;;86.53;39.25;;;7.60;99.90;;;;;;5073551;28;20028;-67
2022/03/16 01:41:02;;;;;;;91.20;41.33;;;7.60;99.90;;;;;;5072259;28;20021;-67
2022/03/16 01:43:28;;;;;;;93.18;40.53;;;7.60;99.90;;;;;;5073287;28;20024;-67
2022/03/16 01:45:54;;;;;;;92.27;41.70;;;7.60;99.90;;;;;;5072055;28;20025;-67
2022/03/16 01:48:20;;;;;;;92.53;41.22;;;7.60;99.90;;;;;;5073529;28;20271;-67
2022/03/16 01:50:47;;;;;;;94.43;43.08;;;7.60;99.90;;;;;;5072160;28;20063;-66
2022/03/16 01:53:13;;;;;;;94.10;42.78;;;7.60;99.90;;;;;;5073362;28;20029;-67
2022/03/16 01:55:42;;;;;;;94.27;41.70;;;7.60;99.90;;;;;;5073150;28;20035;-67
2022/03/16 01:58:10;;;;;;;93.85;43.20;;;7.70;99.90;;;;;;5071835;28;20318;-66
2022/03/16 02:00:36;;;;;;;97.88;42.35;;;7.60;99.90;;;;;;5072015;28;20024;-67
2022/03/16 02:03:02;;;;;;;100.07;42.90;;;7.60;99.90;;;;;;5073672;28;20458;-66
2022/03/16 02:05:28;;;;;;;91.90;42.50;;;7.60;99.90;;;;;;5073455;28;20473;-66
2022/03/16 02:07:54;;;;;;;102.57;44.15;;;7.70;99.90;;;;;;5073413;28;20023;-67
2022/03/16 02:10:21;;;;;;;97.78;43.10;;;7.70;99.90;;;;;;5072024;28;20029;-67
2022/03/16 02:12:49;;;;;;;94.75;40.97;;;7.70;99.90;;;;;;5073600;28;20032;-66
2022/03/16 02:15:16;;;;;;;95.55;43.78;;;7.70;99.90;;;;;;5073845;28;20103;-67
2022/03/16 02:17:42;;;;;;;104.78;43.60;;;7.70;99.90;;;;;;5073728;28;20444;-67
2022/03/16 02:20:09;;;;;;;101.65;42.10;;;7.60;99.90;;;;;;5073248;28;20032;-67
2022/03/16 02:22:55;;;;;;;107.95;44.80;;;7.60;99.90;;;;;;5082585;28;20067;-67
2022/03/16 02:25:23;;;;;;;102.47;42.50;;;7.60;99.90;;;;;;5082779;28;20023;-67
2022/03/16 02:27:49;;;;;;;113.30;44.38;;;7.60;99.90;;;;;;5074297;28;20021;-67
2022/03/16 02:30:15;;;;;;;110.43;44.55;;;7.50;99.90;;;;;;5072017;28;20021;-67
2022/03/16 02:32:41;;;;;;;106.63;43.72;;;7.50;99.90;;;;;;5073329;28;20170;-67
2022/03/16 02:35:07;;;;;;;114.15;45.50;;;7.50;99.90;;;;;;5073296;28;20024;-66
2022/03/16 02:37:37;;;;;;;110.47;44.40;;;7.40;99.90;;;;;;5073112;28;20033;-67
2022/03/16 02:40:03;;;;;;;120.50;46.75;;;7.40;99.90;;;;;;5073616;28;20117;-66
2022/03/16 02:42:28;;;;;;;114.57;45.40;;;7.40;99.90;;;;;;5071781;28;20481;-67
2022/03/16 02:44:54;;;;;;;110.77;45.10;;;7.50;99.90;;;;;;5072846;28;20065;-66
2022/03/16 02:47:20;;;;;;;114.60;43.50;;;7.50;99.90;;;;;;5073072;28;20020;-67
2022/03/16 02:49:46;;;;;;;117.53;46.97;;;7.50;99.90;;;;;;5072875;28;20040;-67
2022/03/16 02:52:12;;;;;;;117.07;44.33;;;7.40;99.90;;;;;;5073169;28;20064;-67
2022/03/16 02:54:38;;;;;;;118.23;47.73;;;7.40;99.90;;;;;;5072868;28;20037;-66
2022/03/16 02:57:04;;;;;;;125.80;45.80;;;7.40;99.90;;;;;;5072777;28;20267;-66
2022/03/16 02:59:30;;;;;;;125.88;47.10;;;7.40;99.90;;;;;;5071417;28;20116;-66
2022/03/16 03:01:55;;;;;;;115.78;46.28;;;7.40;99.90;;;;;;5073010;28;20029;-66
2022/03/16 03:04:21;;;;;;;129.33;45.50;;;7.40;99.90;;;;;;5073586;28;20397;-66
2022/03/16 03:06:47;;;;;;;125.22;46.35;;;7.30;99.90;;;;;;5072995;28;20021;-66
2022/03/16 03:09:12;;;;;;;119.30;46.77;;;7.30;99.90;;;;;;5076305;28;20036;-66
2022/03/16 03:11:38;;;;;;;122.13;46.13;;;7.30;99.90;;;;;;5077082;28;20033;-66
2022/03/16 03:14:04;;;;;;;130.70;45.87;;;7.20;99.90;;;;;;5076956;28;20024;-66
2022/03/16 03:16:29;;;;;;;120.22;43.63;;;7.30;99.90;;;;;;5083402;28;20020;-66
2022/03/16 03:18:55;;;;;;;135.03;47.67;;;7.30;99.90;;;;;;5083016;28;20068;-66
2022/03/16 03:21:21;;;;;;;135.30;45.80;;;7.30;99.90;;;;;;5079367;28;20078;-66
2022/03/16 03:23:46;;;;;;;139.52;47.55;;;7.20;99.90;;;;;;5080483;28;20021;-66
2022/03/16 03:26:12;;;;;;;132.03;47.00;;;7.20;99.90;;;;;;5076922;28;20032;-67
2022/03/16 03:28:37;;;;;;;142.63;49.10;;;7.30;99.90;;;;;;5076595;28;20021;-67
2022/03/16 03:31:03;;;;;;;127.37;42.90;;;7.30;99.90;;;;;;5076208;28;20550;-67
2022/03/16 03:33:30;;;;;;;128.35;43.47;;;7.30;99.90;;;;;;5076444;28;20044;-67
2022/03/16 03:35:55;;;;;;;136.32;45.25;;;7.30;99.90;;;;;;5074527;28;20119;-66
2022/03/16 03:38:21;;;;;;;127.80;43.80;;;7.30;99.90;;;;;;5075089;28;20127;-67
2022/03/16 03:40:47;;;;;;;135.97;44.37;;;7.30;99.90;;;;;;5076050;28;20489;-67
2022/03/16 03:43:12;;;;;;;137.33;46.33;;;7.30;99.90;;;;;;5075836;28;20263;-67
2022/03/16 03:45:41;;;;;;;123.13;44.93;;;7.30;99.90;;;;;;5076291;28;20025;-67
2022/03/16 03:48:06;;;;;;;135.45;43.70;;;7.30;99.90;;;;;;5075577;28;20490;-66
2022/03/16 03:50:32;;;;;;;131.37;45.23;;;7.40;99.90;;;;;;5076053;28;20066;-66
2022/03/16 03:52:58;;;;;;;131.20;45.07;;;7.40;99.90;;;;;;5074632;28;20066;-66
2022/03/16 03:55:23;;;;;;;131.27;44.83;;;7.40;99.90;;;;;;5075781;28;20071;-66
2022/03/16 03:57:49;;;;;;;130.10;46.33;;;7.40;99.90;;;;;;5075744;28;20433;-66
2022/03/16 04:00:15;;;;;;;125.85;43.50;;;7.40;99.90;;;;;;5074339;28;20279;-66
2022/03/16 04:02:51;;;;;;;117.70;39.47;;;7.40;99.90;;;;;;5075683;28;20060;-66
2022/03/16 04:05:18;;;;;;;121.47;42.15;;;7.40;99.90;;;;;;5074217;28;20033;-66
2022/03/16 04:07:43;;;;;;;128.02;42.88;;;7.40;99.90;;;;;;5075359;28;20021;-66
2022/03/16 04:10:09;;;;;;;117.40;42.87;;;7.40;99.90;;;;;;5075800;28;20039;-66
2022/03/16 04:12:35;;;;;;;114.45;39.47;;;7.40;99.90;;;;;;5075223;28;20263;-66
2022/03/16 04:15:01;;;;;;;119.53;44.03;;;7.40;99.90;;;;;;5074027;28;20074;-66
2022/03/16 04:17:26;;;;;;;107.73;39.40;;;7.40;99.90;;;;;;5075599;28;20108;-66
2022/03/16 04:19:52;;;;;;;113.20;41.40;;;7.40;99.90;;;;;;5074893;28;20055;-68
2022/03/16 04:22:17;;;;;;;104.27;39.23;;;7.50;99.90;;;;;;5075159;28;20028;-66
2022/03/16 04:24:43;;;;;;;109.77;41.67;;;7.50;99.90;;;;;;5075358;28;20079;-66
2022/03/16 04:27:09;;;;;;;114.07;42.33;;;7.40;99.90;;;;;;5076448;28;20021;-66
2022/03/16 04:29:34;;;;;;;117.67;42.07;;;7.50;99.90;;;;;;5078361;28;20032;-67
2022/03/16 04:32:00;;;;;;;110.07;41.90;;;7.50;99.90;;;;;;5076774;28;20025;-66
2022/03/16 04:34:25;;;;;;;116.17;42.20;;;7.40;99.90;;;;;;5076011;28;20029;-66
2022/03/16 04:36:51;;;;;;;117.60;42.57;;;7.40;99.90;;;;;;5076271;28;20024;-66
2022/03/16 04:39:17;;;;;;;109.90;42.83;;;7.40;99.90;;;;;;5075417;28;20712;-66
2022/03/16 04:41:43;;;;;;;108.63;40.67;;;7.40;99.90;;;;;;5075397;28;20096;-66
2022/03/16 04:44:08;;;;;;;113.57;41.63;;;7.40;99.90;;;;;;5073640;28;20145;-66
2022/03/16 04:46:34;;;;;;;113.18;40.95;;;7.40;99.90;;;;;;5075110;28;20025;-66
2022/03/16 04:49:00;;;;;;;104.87;41.30;;;7.40;99.90;;;;;;5074815;28;20025;-66
2022/03/16 04:51:26;;;;;;;112.47;40.97;;;7.40;99.90;;;;;;5075097;28;20441;-67
2022/03/16 04:53:51;;;;;;;108.78;41.38;;;7.30;99.90;;;;;;5074714;28;20040;-68
2022/03/16 04:56:17;;;;;;;112.23;41.90;;;7.30;99.90;;;;;;5075047;28;20476;-67
2022/03/16 04:58:43;;;;;;;111.60;42.30;;;7.30;99.90;;;;;;5075039;28;20666;-67
2022/03/16 05:01:08;;;;;;;104.90;40.20;;;7.30;99.90;;;;;;5075069;28;20025;-67
2022/03/16 05:03:34;;;;;;;108.40;39.63;;;7.30;99.90;;;;;;5074670;28;20021;-67
2022/03/16 05:06:00;;;;;;;94.97;38.63;;;7.30;99.90;;;;;;5074721;28;20377;-67
2022/03/16 05:08:25;;;;;;;109.50;42.47;;;7.30;99.90;;;;;;5074363;28;20043;-67
2022/03/16 05:10:51;;;;;;;99.47;39.33;;;7.30;99.90;;;;;;5074322;28;20259;-67
2022/03/16 05:13:17;;;;;;;102.50;40.00;;;7.30;99.90;;;;;;5074388;28;20024;-67
2022/03/16 05:15:42;;;;;;;98.93;39.72;;;7.30;99.90;;;;;;5075136;28;20025;-67
2022/03/16 05:18:08;;;;;;;97.00;39.57;;;7.30;99.90;;;;;;5074402;28;20082;-66
2022/03/16 05:20:34;;;;;;;87.03;37.73;;;7.30;99.90;;;;;;5074477;28;20080;-67
2022/03/16 05:23:00;;;;;;;93.90;39.40;;;7.30;99.90;;;;;;5074512;28;20036;-67
2022/03/16 05:25:27;;;;;;;90.07;37.00;;;7.30;99.90;;;;;;5074236;28;20032;-66
2022/03/16 05:27:54;;;;;;;86.28;35.70;;;7.30;99.90;;;;;;5073945;28;20017;-67
2022/03/16 05:30:22;;;;;;;;;;;7.30;99.90;;;;;;5083357;28;20024;-65
2022/03/16 05:32:50;;;;;;;84.50;35.78;;;7.30;99.90;;;;;;5083952;28;19905;-66
2022/03/16 05:35:16;;;;;;;86.68;37.50;;;7.30;99.90;;;;;;5075620;28;20032;-66
2022/03/16 05:37:42;;;;;;;92.03;38.03;;;7.30;99.90;;;;;;5074400;28;20082;-66
2022/03/16 05:40:08;;;;;;;81.90;35.67;;;7.30;99.90;;;;;;5073861;28;20024;-65
2022/03/16 05:42:34;;;;;;;82.32;36.45;;;7.30;99.90;;;;;;5078183;28;20044;-66
2022/03/16 05:45:01;;;;;;;84.07;38.20;;;7.30;99.90;;;;;;5075985;28;20032;-66
2022/03/16 05:47:27;;;;;;;79.90;36.33;;;7.30;99.90;;;;;;5074009;28;20025;-66
2022/03/16 05:49:54;;;;;;;81.00;34.75;;;7.30;99.90;;;;;;5073615;28;20051;-66
2022/03/16 05:52:21;;;;;;;75.00;33.13;;;7.30;99.90;;;;;;5073788;28;20028;-66
2022/03/16 05:54:52;;;;;;;73.18;34.45;;;7.30;99.90;;;;;;5073719;28;20052;-66
2022/03/16 05:57:19;;;;;;;68.47;33.92;;;7.30;99.90;;;;;;5072449;28;20016;-67
2022/03/16 05:59:45;;;;;;;76.40;33.83;;;7.30;99.90;;;;;;5073515;28;20477;-65
2022/03/16 06:02:11;;;;;;;;;;;7.30;99.90;;;;;;5074808;28;20033;-67
2022/03/16 06:04:38;;;;;;;70.40;32.30;;;7.30;99.90;;;;;;5073709;28;19905;-66
2022/03/16 06:07:05;;;;;;;67.53;32.70;;;7.30;99.90;;;;;;5073174;28;20029;-66
2022/03/16 06:09:31;;;;;;;68.32;33.30;;;7.30;99.90;;;;;;5096855;22;20125;-62
2022/03/16 06:11:58;;;;;;;61.30;31.58;;;7.30;99.90;;;;;;5071869;28;20425;-61
2022/03/16 06:14:23;;;;;;;;;;;7.30;99.90;;;;;;5073482;28;20032;-60
2022/03/16 06:16:50;;;;;;;63.78;32.38;;;7.30;99.90;;;;;;5073304;28;20311;-61
2022/03/16 06:19:16;;;;;;;;;;;7.30;99.90;;;;;;5078706;28;20034;-62
2022/03/16 06:21:41;;;;;;;66.20;31.33;;;7.30;99.90;;;;;;5083985;28;19944;-62
2022/03/16 06:24:07;;;;;;;57.83;29.53;;;7.40;99.90;;;;;;5073672;28;20031;-59
2022/03/16 06:26:33;;;;;;;57.60;30.53;;;7.40;99.90;;;;;;5073293;28;20478;-60
2022/03/16 06:28:59;;;;;;;60.55;32.30;;;7.40;99.90;;;;;;5072922;28;20028;-60
2022/03/16 06:31:24;;;;;;;57.97;30.45;;;7.40;99.90;;;;;;5071534;28;20024;-61
2022/03/16 06:33:50;;;;;;;62.55;32.38;;;7.40;99.90;;;;;;5072104;28;20103;-61
2022/03/16 06:36:16;;;;;;;59.90;31.20;;;7.40;99.90;;;;;;5073134;28;20028;-59
2022/03/16 06:38:41;;;;;;;57.30;30.90;;;7.40;99.90;;;;;;5072963;28;20031;-60
2022/03/16 06:41:07;;;;;;;58.53;31.00;;;7.40;99.90;;;;;;5073754;28;20032;-60
2022/03/16 06:43:32;;;;;;;54.97;29.07;;;7.40;99.90;;;;;;5075992;28;20032;-63
2022/03/16 06:45:58;;;;;;;52.93;29.20;;;7.40;99.90;;;;;;5076777;28;20028;-60
2022/03/16 06:48:24;;;;;;;50.80;28.37;;;7.40;99.90;;;;;;5076974;28;20036;-63
2022/03/16 06:50:50;;;;;;;55.97;29.83;;;7.40;99.90;;;;;;5075686;28;20025;-60
2022/03/16 06:53:16;;;;;;;53.25;29.05;;;7.40;99.90;;;;;;5076752;28;20394;-60
2022/03/16 06:55:42;;;;;;;51.17;28.60;;;7.50;99.90;;;;;;5076754;28;20046;-61
2022/03/16 06:58:08;;;;;;;52.80;28.58;;;7.50;99.90;;;;;;5076481;28;20025;-60
2022/03/16 07:00:33;;;;;;;54.77;29.90;;;7.50;99.90;;;;;;5076561;28;20032;-59
2022/03/16 07:03:02;;;;;;;52.63;29.55;;;7.50;99.90;;;;;;5075833;28;20028;-63
2022/03/16 07:05:33;;;;;;;54.17;29.00;;;7.50;99.90;;;;;;5076253;28;20029;-60
2022/03/16 07:08:01;;;;;;;53.28;28.77;;;7.50;99.90;;;;;;5076324;28;20033;-63
2022/03/16 07:10:28;;;;;;;53.80;29.67;;;7.50;99.90;;;;;;5075211;28;20055;-61
2022/03/16 07:12:54;;;;;;;53.03;29.27;;;7.60;99.90;;;;;;5077311;28;20165;-64
2022/03/16 07:15:20;;;;;;;51.63;28.53;;;7.60;99.90;;;;;;5078231;28;20020;-60
2022/03/16 07:17:45;;;;;;;51.58;28.38;;;7.60;99.90;;;;;;5077367;28;20082;-61
2022/03/16 07:20:11;;;;;;;50.20;28.17;;;7.70;99.90;;;;;;5076873;28;20028;-57
2022/03/16 07:22:38;;;;;;;58.35;30.00;;;7.70;99.90;;;;;;5077470;28;20029;-62
2022/03/16 07:25:05;;;;;;;50.90;29.38;;;7.80;99.90;;;;;;5075388;28;20021;-63
2022/03/16 07:27:31;;;;;;;48.15;27.00;;;7.80;99.90;;;;;;5076312;28;20386;-63
2022/03/16 07:29:56;;;;;;;50.77;27.53;;;7.80;99.90;;;;;;5076067;28;20067;-60
2022/03/16 07:32:22;;;;;;;49.53;27.00;;;7.90;99.90;;;;;;5075837;28;20020;-62
2022/03/16 07:34:49;;;;;;;50.28;29.00;;;7.90;99.90;;;;;;5074655;28;20403;-62
2022/03/16 07:37:14;;;;;;;;;;;7.90;99.90;;;;;;5075075;28;20040;-61
2022/03/16 07:39:40;;;;;;;52.28;28.08;;;7.90;99.90;;;;;;5075898;28;19908;-64
2022/03/16 07:42:06;;;;;;;51.80;28.77;;;8.00;99.90;;;;;;5076156;28;20020;-64
2022/03/16 07:44:32;;;;;;;55.10;30.40;;;8.10;99.90;;;;;;5075894;28;20477;-62
2022/03/16 07:46:58;;;;;;;52.60;28.77;;;8.10;99.90;;;;;;5076274;28;20021;-64
2022/03/16 07:49:24;;;;;;;;;;;8.10;99.90;;;;;;5076309;28;20027;-62
2022/03/16 07:51:49;;;;;;;51.33;28.30;;;8.20;99.90;;;;;;5075847;28;19983;-63
2022/03/16 07:54:15;;;;;;;54.70;28.80;;;8.20;99.90;;;;;;5075586;28;20024;-62
2022/03/16 07:56:41;;;;;;;53.70;29.30;;;8.20;99.90;;;;;;5077005;28;20085;-62
2022/03/16 07:59:06;;;;;;;50.10;27.90;;;8.30;99.90;;;;;;5079043;28;20032;-61
2022/03/16 08:01:32;;;;;;;49.67;28.17;;;8.30;99.90;;;;;;5075523;28;20301;-61
2022/03/16 08:03:57;;;;;;;48.53;25.73;;;8.40;99.90;;;;;;5074249;28;20112;-61
2022/03/16 08:06:23;;;;;;;55.60;28.30;;;8.50;99.90;;;;;;5075875;28;20024;-60
2022/03/16 08:08:49;;;;;;;51.90;28.77;;;8.50;99.90;;;;;;5075363;28;20029;-61
2022/03/16 08:11:14;;;;;;;51.50;26.93;;;8.50;99.90;;;;;;5076097;28;20488;-58
2022/03/16 08:13:40;;;;;;;51.33;28.97;;;8.50;99.90;;;;;;5075736;28;20028;-63
2022/03/16 08:16:06;;;;;;;52.17;27.63;;;8.50;99.90;;;;;;5075794;28;20028;-61
2022/03/16 08:18:32;;;;;;;50.67;27.15;;;8.40;99.90;;;;;;5075520;28;20024;-60
2022/03/16 08:20:58;;;;;;;58.83;29.58;;;8.50;99.90;;;;;;5075631;28;20037;-60
2022/03/16 08:23:24;;;;;;;51.77;29.07;;;8.50;99.90;;;;;;5075448;28;20027;-59
2022/03/16 08:25:50;;;;;;;;;;;8.50;99.90;;;;;;5075640;28;20028;-61
2022/03/16 08:28:16;;;;;;;54.58;27.85;;;8.60;99.90;;;;;;5073977;28;19905;-61
2022/03/16 08:30:42;;;;;;;48.20;27.15;;;8.60;99.90;;;;;;5075039;28;20020;-59
2022/03/16 08:33:08;;;;;;;51.55;28.95;;;8.70;99.90;;;;;;5075108;28;20384;-63
2022/03/16 08:35:34;;;;;;;56.37;29.30;;;8.80;99.90;;;;;;5075175;28;20095;-60
2022/03/16 08:37:59;;;;;;;49.63;27.35;;;8.90;99.90;;;;;;5075025;28;20389;-61
2022/03/16 08:40:25;;;;;;;49.47;27.13;;;8.90;99.90;;;;;;5073100;28;20060;-60
2022/03/16 08:42:52;;;;;;;52.23;28.07;;;8.90;99.90;;;;;;5074601;28;20021;-61
2022/03/16 08:45:19;;;;;;;56.70;29.40;;;9.00;99.90;;;;;;5074830;28;20258;-60
2022/03/16 08:47:44;;;;;;;55.20;27.30;;;9.10;99.90;;;;;;5075014;28;20025;-60
2022/03/16 08:50:10;;;;;;;61.77;28.80;;;9.10;99.90;;;;;;5074659;28;20032;-60
2022/03/16 08:52:36;;;;;;;59.90;28.92;;;9.20;99.90;;;;;;5074669;28;20499;-60
2022/03/16 08:55:01;;;;;;;61.57;29.70;;;9.20;99.90;;;;;;5074896;28;20036;-60
2022/03/16 08:57:28;;;;;;;55.33;28.97;;;9.30;99.90;;;;;;5073294;28;20028;-59
2022/03/16 08:59:55;;;;;;;62.80;30.95;;;9.40;99.90;;;;;;5074386;28;20031;-61
2022/03/16 09:02:21;;;;;;;60.58;29.02;;;9.50;99.90;;;;;;5075068;28;20086;-59
2022/03/16 09:04:47;;;;;;;58.90;29.88;;;9.50;99.90;;;;;;5075158;28;20029;-62
2022/03/16 09:07:12;;;;;;;58.13;30.10;;;9.60;99.90;;;;;;5083907;28;20066;-62
2022/03/16 09:09:39;;;;;;;59.43;30.73;;;9.60;99.90;;;;;;5079408;28;20123;-59
2022/03/16 09:12:05;;;;;;;;;;;9.70;99.90;;;;;;5075854;28;20258;-61
2022/03/16 09:14:30;;;;;;;60.45;29.55;;;9.70;99.90;;;;;;5075688;28;19911;-61
2022/03/16 09:16:56;;;;;;;59.00;28.73;;;9.80;99.90;;;;;;5074828;28;20130;-60
2022/03/16 09:19:21;;;;;;;65.30;30.47;;;9.80;99.90;;;;;;5074076;28;20056;-61
2022/03/16 09:21:51;;;;;;;57.50;28.05;;;9.90;99.90;;;;;;5077107;28;20020;-62
2022/03/16 09:24:17;;;;;;;59.25;29.70;;;9.90;99.90;;;;;;5076396;28;20028;-61
2022/03/16 09:26:43;;;;;;;56.50;29.75;;;9.90;99.90;;;;;;5074772;28;20044;-62
2022/03/16 09:29:10;;;;;;;61.90;30.50;;;9.90;99.90;;;;;;5073648;28;20078;-61
2022/03/16 09:31:37;;;;;;;56.30;28.08;;;10.00;99.90;;;;;;5073981;28;20071;-60
2022/03/16 09:34:05;;;;;;;52.30;27.88;;;10.00;99.90;;;;;;5073941;28;20033;-60
2022/03/16 09:36:32;;;;;;;54.47;28.92;;;10.10;99.90;;;;;;5073506;28;20362;-61
2022/03/16 09:38:58;;;;;;;52.60;28.67;;;10.20;99.90;;;;;;5073609;28;20024;-61
2022/03/16 09:41:27;;;;;;;51.28;26.70;;;10.20;99.90;;;;;;5073854;28;20017;-61
2022/03/16 09:43:54;;;;;;;55.38;28.75;;;10.10;99.90;;;;;;5073542;28;20032;-61
2022/03/16 09:46:29;;;;;;;;;;;10.20;99.90;;;;;;5074128;28;20381;-60
2022/03/16 09:48:54;;;;;;;50.33;25.92;;;10.30;99.90;;;;;;5072514;28;20304;-62
2022/03/16 09:51:21;;;;;;;50.63;26.47;;;10.40;99.90;;;;;;5073349;28;20103;-62
2022/03/16 09:53:47;;;;;;;53.88;26.77;;;10.50;99.90;;;;;;5073292;28;20077;-61
2022/03/16 09:56:14;;;;;;;51.60;26.83;;;10.60;99.90;;;;;;5073156;28;20104;-60
2022/03/16 09:58:43;;;;;;;47.33;26.60;;;10.70;99.90;;;;;;5073281;28;20025;-60
2022/03/16 10:01:08;;;;;;;51.35;28.52;;;10.80;99.90;;;;;;5073332;28;20017;-61
2022/03/16 10:03:35;;;;;;;48.78;26.58;;;10.90;99.90;;;;;;5071888;28;20398;-61
2022/03/16 10:06:01;;;;;;;48.13;25.83;;;11.00;99.90;;;;;;5073368;28;20057;-61
2022/03/16 10:08:32;;;;;;;44.88;25.02;;;11.10;99.90;;;;;;5073550;28;20499;-63
2022/03/16 10:14:11;;;;;;;46.15;24.80;;;11.30;99.90;;;;;;5073910;28;20067;-60
2022/03/16 10:19:24;;;;;;;41.67;24.13;;;11.80;99.90;;;;;;5073074;28;20032;-61
2022/03/16 10:22:00;;;;;;;38.83;23.90;;;12.00;99.90;;;;;;5073146;28;20484;-61
2022/03/16 10:24:29;;;;;;;41.50;23.65;;;12.10;99.90;;;;;;5073126;28;20025;-61
2022/03/16 10:26:58;;;;;;;39.92;23.95;;;12.50;99.90;;;;;;5073001;28;20107;-60
2022/03/16 10:29:26;;;;;;;42.35;24.88;;;12.80;99.90;;;;;;5072933;28;20389;-61
2022/03/16 10:32:05;;;;;;;41.53;23.08;;;13.10;99.90;;;;;;5073369;28;20016;-62
2022/03/16 10:34:32;;;;;;;37.45;22.88;;;13.40;99.90;;;;;;5074129;28;20020;-62
2022/03/16 10:37:02;;;;;;;38.92;23.63;;;13.50;99.90;;;;;;5073323;28;20071;-61
2022/03/16 10:39:37;;;;;;;38.78;23.50;;;13.30;99.90;;;;;;5073244;28;20029;-60
2022/03/16 10:48:16;;;;;;;35.35;22.75;;;13.40;99.90;;;;;;5073750;28;20074;-61
2022/03/16 10:50:43;;;;;;;32.97;20.73;;;13.70;99.90;;;;;;5073510;28;20435;-62
2022/03/16 10:53:14;;;;;;;32.20;20.95;;;14.10;99.90;;;;;;5073178;28;20100;-62
2022/03/16 10:55:41;;;;;;;31.70;21.00;;;13.80;99.90;;;;;;5073332;28;20382;-61
2022/03/16 10:58:08;;;;;;;31.10;20.77;;;13.80;99.90;;;;;;5073297;28;20039;-62
2022/03/16 11:00:39;;;;;;;34.28;20.48;;;13.80;99.90;;;;;;5073283;28;20123;-61
2022/03/16 11:03:15;;;;;;;32.88;19.98;;;14.10;99.90;;;;;;5071794;28;20040;-61
2022/03/16 11:05:42;;;;;;;31.30;20.80;;;13.90;99.90;;;;;;5073162;28;20021;-61
2022/03/16 11:08:09;;;;;;;33.45;20.33;;;13.60;99.90;;;;;;5072904;28;20106;-61
2022/03/16 11:10:37;;;;;;;28.60;19.17;;;13.50;99.90;;;;;;5072812;28;20035;-61
2022/03/16 11:15:50;;;;;;;26.33;17.90;;;14.00;99.90;;;;;;5074097;28;20073;-61
2022/03/16 11:18:17;;;;;;;28.63;18.88;;;13.80;99.90;;;;;;5074361;28;20040;-62
2022/03/16 11:20:50;;;;;;;31.23;19.48;;;13.40;99.90;;;;;;5075780;28;20494;-62
2022/03/16 11:26:46;;;;;;;30.83;19.02;;;13.20;99.90;;;;;;5077330;28;20031;-61
2022/03/16 11:29:38;;;;;;;32.15;18.58;;;13.30;99.90;;;;;;5079545;28;20111;-61
2022/03/16 11:32:13;;;;;;;31.58;18.90;;;13.30;99.90;;;;;;5080791;28;20024;-61
2022/03/16 11:34:39;;;;;;;31.55;18.42;;;13.20;99.90;;;;;;5082313;28;20142;-62
2022/03/16 11:37:11;;;;;;;30.27;19.17;;;13.00;99.90;;;;;;5082484;28;20140;-61
2022/03/16 11:39:46;;;;;;;29.70;18.48;;;12.90;99.90;;;;;;5082135;28;20476;-60
2022/03/16 11:42:18;;;;;;;31.13;19.95;;;13.00;99.90;;;;;;5083212;28;20082;-62
2022/03/16 11:44:45;;;;;;;29.70;19.42;;;13.20;99.90;;;;;;5081737;28;20092;-62
2022/03/16 11:47:10;;;;;;;33.17;20.92;;;13.20;99.90;;;;;;5079843;28;20036;-62
2022/03/16 11:50:05;;;;;;;29.58;19.02;;;13.20;99.90;;;;;;5078517;28;20025;-62
2022/03/16 11:53:13;;;;;;;32.15;20.48;;;13.10;99.90;;;;;;5074648;28;20516;-61
2022/03/16 11:55:47;;;;;;;32.58;19.83;;;13.00;99.90;;;;;;5083816;28;20029;-62
2022/03/16 11:58:32;;;;;;;32.95;20.10;;;12.80;99.90;;;;;;5084269;28;20052;-64
2022/03/16 12:01:28;;;;;;;33.22;20.20;;;12.80;99.90;;;;;;5083536;28;20012;-63
2022/03/16 12:04:12;;;;;;;33.75;19.52;;;12.90;99.90;;;;;;5072575;28;20093;-61
2022/03/16 12:07:02;;;;;;;35.22;20.50;;;13.00;99.90;;;;;;5081817;28;20025;-62
2022/03/16 12:09:45;;;;;;;34.10;20.52;;;12.90;99.90;;;;;;5079123;28;20040;-66
2022/03/16 12:15:31;;;;;;;33.55;20.33;;;12.90;99.90;;;;;;5039474;28;20097;-65
2022/03/16 12:17:57;;;;;;;34.83;21.17;;;13.00;99.90;;;;;;5075708;28;20047;-65
2022/03/16 12:20:45;;;;;;;32.17;18.70;;;13.00;99.90;;;;;;5081200;28;20029;-66
2022/03/16 12:23:18;;;;;;;32.42;20.23;;;13.00;99.90;;;;;;5081887;28;20017;-66
2022/03/16 12:25:49;;;;;;;30.98;19.67;;;13.10;99.90;;;;;;5081250;28;20046;-66
2022/03/16 12:31:16;;;;;;;31.08;18.00;;;13.30;99.90;;;;;;5080170;28;20047;-65
2022/03/16 12:33:45;;;;;;;35.88;19.60;;;13.20;99.90;;;;;;5080316;28;20081;-66
2022/03/16 12:36:13;;;;;;;33.28;20.55;;;13.00;99.90;;;;;;5076809;28;20024;-65
2022/03/16 12:38:43;;;;;;;30.35;19.75;;;12.90;99.90;;;;;;5075818;28;20024;-65
2022/03/16 12:43:56;;;;;;;32.45;19.35;;;13.00;99.90;;;;;;5075675;28;20066;-65
2022/03/16 12:46:37;;;;;;;39.42;20.23;;;13.00;99.90;;;;;;5074213;28;20024;-65
2022/03/16 12:49:03;;;;;;;36.72;20.35;;;13.00;99.90;;;;;;5075519;28;20040;-64
2022/03/16 12:51:48;;;;;;;31.20;19.13;;;13.00;99.90;;;;;;5075076;28;20438;-65
2022/03/16 12:54:26;;;;;;;36.03;20.63;;;13.10;99.90;;;;;;5073528;28;20397;-66
2022/03/16 12:56:55;;;;;;;35.05;20.67;;;13.20;99.90;;;;;;5075636;28;20047;-65
2022/03/16 12:59:29;;;;;;;35.60;19.90;;;13.30;99.90;;;;;;5076236;28;20370;-66
2022/03/16 13:02:03;;;;;;;31.48;19.38;;;13.40;99.90;;;;;;5074867;28;20052;-68
2022/03/16 13:04:29;;;;;;;34.03;19.85;;;13.50;99.90;;;;;;5075465;28;20032;-68